Home   Weather   Germany   Oberwesel   Past weeks
Flag for Germany

Past Weather in Oberwesel, Rhineland-Palatinate, Germany — Yesterday and Last 2 Weeks

Currently: 54 °F. Sunny. (Weather station: Hahn, Germany). See more current weather

Past Weather in Oberwesel — Graph

°F

Oberwesel Temperature Yesterday

Maximum temperature yesterday: 55 °F (at 2:50 pm)
Minimum temperature yesterday: 34 °F (at 6:50 am)
Average temperature yesterday: 44 °F

High & Low Weather Summary for the Past Weeks

 TemperatureHumidityPressure
High63 °F (Feb 21, 3:20 pm)100% (Feb 16, 11:50 pm)30.66 "Hg (Feb 16, 11:50 pm)
Low30 °F (Feb 28, 7:20 am)27% (Feb 25, 3:20 pm)29.77 "Hg (Feb 18, 6:20 pm)
Average45 °F75%30.27 "Hg
* Reported Feb 16 5:20 pm — Mar 3 5:20 pm, Oberwesel. Weather by CustomWeather, © 2021

Note: Actual official high and low records may vary slightly from our data, if they occured in-between our weather recording intervals... More about our weather records

Oberwesel Weather History for the Previous 24 Hours

Scroll right to see more
 ConditionsComfort  
Time TempWeatherWind HumidityBarometerVisibility
5:20 pm
Wed, Mar 3
55 °FSunny.6 mph41%30.30 "Hg10 mi
4:50 pm55 °FSunny.6 mph41%30.30 "Hg10 mi
4:20 pm55 °FSunny.8 mph41%30.30 "Hg10 mi
3:50 pm57 °FPassing clouds.8 mph41%30.30 "HgN/A
3:20 pm57 °FPassing clouds.7 mph41%30.33 "HgN/A
2:50 pm55 °FPassing clouds.8 mph44%30.33 "HgN/A
2:20 pm55 °FPassing clouds.8 mph44%30.33 "HgN/A
1:50 pm55 °FPassing clouds.8 mph47%30.33 "HgN/A
1:20 pm54 °FSunny.10 mph51%30.36 "Hg10 mi
12:50 pm52 °FSunny.9 mph54%30.36 "Hg10 mi
12:20 pm52 °FSunny.8 mph54%30.36 "Hg10 mi
11:50 am52 °FPassing clouds.5 mph50%30.36 "HgN/A
11:20 am50 °FSunny.7 mph58%30.36 "Hg10 mi
10:50 am50 °FPassing clouds.3 mph54%30.36 "HgN/A
9:50 am46 °FSunny.2 mph62%30.39 "Hg10 mi
9:20 am43 °FPassing clouds.5 mph66%30.39 "HgN/A
8:50 am48 °FPassing clouds.5 mph54%30.39 "HgN/A
8:20 am46 °FSunny.7 mph53%30.36 "Hg10 mi
7:50 am43 °FSunny.7 mph61%30.36 "Hg10 mi
7:20 am41 °FSunny.8 mph61%30.39 "Hg10 mi
6:50 am39 °FClear.7 mph65%30.36 "Hg10 mi
6:20 am39 °FClear.6 mph65%30.39 "Hg10 mi
5:50 am39 °FClear.7 mph65%30.39 "Hg10 mi
4:50 am37 °FClear.9 mph81%30.39 "Hg10 mi
4:20 am39 °FClear.9 mph75%30.39 "Hg10 mi
3:20 am37 °FClear.10 mph81%30.39 "Hg10 mi
2:50 am37 °FClear.10 mph81%30.39 "Hg10 mi
2:20 am39 °FClear.13 mph75%30.39 "Hg10 mi
1:20 am43 °FClear.13 mph71%30.42 "Hg10 mi
12:50 am43 °FClear.13 mph71%30.42 "Hg10 mi
12:20 am43 °FClear.13 mph76%30.42 "Hg10 mi
11:50 pm
Tue, Mar 2
43 °FClear.13 mph76%30.42 "Hg10 mi
11:20 pm45 °FPassing clouds.13 mph71%30.42 "HgN/A
10:50 pm45 °FClear.13 mph71%30.42 "Hg10 mi
10:20 pm45 °FClear.12 mph71%30.42 "Hg10 mi
9:50 pm45 °FClear.12 mph71%30.42 "Hg10 mi
9:20 pm45 °FClear.12 mph71%30.42 "Hg10 mi
8:50 pm45 °FClear.12 mph71%30.42 "Hg10 mi
8:20 pm46 °FClear.12 mph66%30.42 "Hg10 mi
7:50 pm46 °FClear.10 mph66%30.42 "Hg10 mi
7:20 pm46 °FClear.10 mph66%30.42 "Hg10 mi
6:20 pm50 °FPassing clouds.8 mph58%30.42 "HgN/A
Weather by CustomWeather, © 2021

See weather overview